DLH8WZ EDDG-EKBI
Flight info
| Callsign | DLH8WZ |
|---|---|
| Flight time | 0h 40m |
| Altitude | 29000 |
| Route | JUWGI Z529 RORUS DCT ATTUS P992 ASMUS |
| Aircraft | A320/M-SDE3FGHIRWY/LB1 |
Departure
| Time | 2026-05-04 10:16 |
|---|---|
| Airport | Münster Osnabrück Airport (EDDG) |
Arrival
| Time | 2026-05-04 10:56 |
|---|---|
| Airport | Billund Airport (EKBI) |
| Time | Latitude | Longitude | Altitude | Speed | Heading |
|---|---|---|---|---|---|
| 2026-05-04 09:49 | 52.13272 | 7.69212 | 168 ft | 0 kts | 161° |
| 2026-05-04 10:09 | 52.13269 | 7.69213 | 167 ft | 3 kts | 161° |
| 2026-05-04 10:10 | 52.13249 | 7.69225 | 167 ft | 3 kts | 161° |
| 2026-05-04 10:10 | 52.13230 | 7.69248 | 167 ft | 4 kts | 130° |
| 2026-05-04 10:10 | 52.13228 | 7.69317 | 167 ft | 7 kts | 74° |
| 2026-05-04 10:10 | 52.13259 | 7.69319 | 167 ft | 5 kts | 342° |
| 2026-05-04 10:11 | 52.13298 | 7.69296 | 167 ft | 9 kts | 340° |
| 2026-05-04 10:11 | 52.13364 | 7.69259 | 167 ft | 10 kts | 340° |
| 2026-05-04 10:11 | 52.13434 | 7.69247 | 167 ft | 10 kts | 26° |
| 2026-05-04 10:11 | 52.13466 | 7.69344 | 167 ft | 10 kts | 68° |
| 2026-05-04 10:12 | 52.13494 | 7.69449 | 167 ft | 10 kts | 66° |
| 2026-05-04 10:12 | 52.13518 | 7.69560 | 167 ft | 11 kts | 71° |
| 2026-05-04 10:12 | 52.13542 | 7.69674 | 167 ft | 11 kts | 70° |
| 2026-05-04 10:12 | 52.13568 | 7.69790 | 167 ft | 11 kts | 71° |
| 2026-05-04 10:13 | 52.13593 | 7.69910 | 167 ft | 11 kts | 71° |
| 2026-05-04 10:13 | 52.13634 | 7.70011 | 167 ft | 11 kts | 28° |
| 2026-05-04 10:13 | 52.13716 | 7.70020 | 167 ft | 13 kts | 345° |
| 2026-05-04 10:13 | 52.13766 | 7.69921 | 167 ft | 12 kts | 266° |
| 2026-05-04 10:14 | 52.13760 | 7.69884 | 168 ft | 17 kts | 254° |
| 2026-05-04 10:14 | 52.13623 | 7.69250 | 169 ft | 98 kts | 251° |
| 2026-05-04 10:16 | 52.16046 | 7.60675 | 3108 ft | 261 kts | 40° |
| 2026-05-04 10:16 | 52.17070 | 7.63152 | 3849 ft | 270 kts | 71° |
| 2026-05-04 10:16 | 52.17499 | 7.66164 | 4646 ft | 277 kts | 82° |
| 2026-05-04 10:16 | 52.17722 | 7.69293 | 4928 ft | 278 kts | 85° |
| 2026-05-04 10:17 | 52.18156 | 7.72397 | 5716 ft | 283 kts | 66° |
| 2026-05-04 10:17 | 52.19304 | 7.74989 | 6739 ft | 286 kts | 38° |
| 2026-05-04 10:19 | 52.33949 | 7.78422 | 11305 ft | 352 kts | 4° |
| 2026-05-04 10:19 | 52.36349 | 7.79147 | 11975 ft | 359 kts | 10° |
| 2026-05-04 10:19 | 52.38807 | 7.80069 | 12682 ft | 364 kts | 9° |
| 2026-05-04 10:19 | 52.41288 | 7.80992 | 13392 ft | 369 kts | 9° |
| 2026-05-04 10:20 | 52.43812 | 7.81925 | 14054 ft | 373 kts | 9° |
| 2026-05-04 10:20 | 52.46363 | 7.82863 | 14668 ft | 378 kts | 9° |
| 2026-05-04 10:20 | 52.48944 | 7.83811 | 15318 ft | 382 kts | 9° |
| 2026-05-04 10:20 | 52.51551 | 7.84770 | 15969 ft | 385 kts | 9° |
| 2026-05-04 10:21 | 52.54176 | 7.85737 | 16596 ft | 388 kts | 9° |
| 2026-05-04 10:21 | 52.56828 | 7.86716 | 17194 ft | 392 kts | 9° |
| 2026-05-04 10:21 | 52.59507 | 7.87711 | 17805 ft | 397 kts | 9° |
| 2026-05-04 10:21 | 52.62214 | 7.88724 | 18381 ft | 401 kts | 9° |
| 2026-05-04 10:22 | 52.67683 | 7.90776 | 19396 ft | 409 kts | 9° |
| 2026-05-04 10:22 | 52.70470 | 7.91812 | 19914 ft | 412 kts | 9° |
| 2026-05-04 10:22 | 52.73320 | 7.92871 | 20439 ft | 416 kts | 9° |
| 2026-05-04 10:23 | 52.76164 | 7.93933 | 20948 ft | 421 kts | 8° |
| 2026-05-04 10:23 | 52.78998 | 7.94993 | 21433 ft | 426 kts | 8° |
| 2026-05-04 10:25 | 52.99878 | 8.02866 | 24583 ft | 450 kts | 8° |
| 2026-05-04 10:25 | 53.02940 | 8.04029 | 24989 ft | 452 kts | 8° |
| 2026-05-04 10:25 | 53.06008 | 8.05195 | 25381 ft | 454 kts | 8° |
| 2026-05-04 10:25 | 53.09094 | 8.06367 | 25763 ft | 456 kts | 7° |
| 2026-05-04 10:26 | 53.12191 | 8.07542 | 26141 ft | 458 kts | 7° |
| 2026-05-04 10:26 | 53.15303 | 8.08724 | 26516 ft | 459 kts | 7° |
| 2026-05-04 10:26 | 53.18426 | 8.09914 | 26896 ft | 461 kts | 7° |
| 2026-05-04 10:26 | 53.21526 | 8.11101 | 27245 ft | 463 kts | 7° |
| 2026-05-04 10:27 | 53.24669 | 8.12314 | 27603 ft | 465 kts | 7° |
| 2026-05-04 10:27 | 53.27830 | 8.13537 | 27953 ft | 467 kts | 7° |
| 2026-05-04 10:27 | 53.30998 | 8.14761 | 28299 ft | 468 kts | 7° |
| 2026-05-04 10:27 | 53.34178 | 8.15979 | 28622 ft | 470 kts | 7° |
| 2026-05-04 10:28 | 53.37372 | 8.17200 | 28927 ft | 472 kts | 7° |
| 2026-05-04 10:28 | 53.43698 | 8.19643 | 29004 ft | 460 kts | 7° |
| 2026-05-04 10:29 | 53.49924 | 8.22047 | 29005 ft | 459 kts | 7° |
| 2026-05-04 10:29 | 53.56157 | 8.24459 | 29014 ft | 459 kts | 7° |
| 2026-05-04 10:30 | 53.62388 | 8.26884 | 29013 ft | 460 kts | 7° |
| 2026-05-04 10:30 | 53.68582 | 8.29311 | 29016 ft | 460 kts | 7° |
| 2026-05-04 10:31 | 53.74857 | 8.31784 | 29024 ft | 460 kts | 6° |
| 2026-05-04 10:32 | 53.96720 | 8.40407 | 29046 ft | 462 kts | 5° |
| 2026-05-04 10:33 | 54.02989 | 8.42890 | 29023 ft | 463 kts | 6° |
| 2026-05-04 10:33 | 54.09274 | 8.45394 | 29016 ft | 463 kts | 6° |
| 2026-05-04 10:34 | 54.15551 | 8.47905 | 29011 ft | 464 kts | 6° |
| 2026-05-04 10:34 | 54.21837 | 8.50432 | 29042 ft | 464 kts | 6° |
| 2026-05-04 10:35 | 54.28121 | 8.52959 | 29035 ft | 463 kts | 6° |
| 2026-05-04 10:35 | 54.34401 | 8.55485 | 28920 ft | 464 kts | 5° |
| 2026-05-04 10:36 | 54.37540 | 8.56755 | 28623 ft | 462 kts | 5° |
| 2026-05-04 10:36 | 54.40618 | 8.58010 | 28055 ft | 458 kts | 6° |
| 2026-05-04 10:36 | 54.43703 | 8.59273 | 27481 ft | 454 kts | 6° |
| 2026-05-04 10:36 | 54.46757 | 8.60523 | 26994 ft | 448 kts | 7° |
| 2026-05-04 10:37 | 54.49767 | 8.61752 | 26507 ft | 442 kts | 7° |
| 2026-05-04 10:37 | 54.52747 | 8.62967 | 25982 ft | 437 kts | 7° |
| 2026-05-04 10:37 | 54.55697 | 8.64168 | 25456 ft | 433 kts | 7° |
| 2026-05-04 10:37 | 54.58620 | 8.65360 | 24942 ft | 430 kts | 7° |
| 2026-05-04 10:39 | 54.75646 | 8.72350 | 22008 ft | 407 kts | 8° |
| 2026-05-04 10:39 | 54.78396 | 8.73478 | 21522 ft | 403 kts | 8° |
| 2026-05-04 10:39 | 54.81080 | 8.74580 | 21048 ft | 400 kts | 8° |
| 2026-05-04 10:40 | 54.83781 | 8.75700 | 20571 ft | 397 kts | 8° |
| 2026-05-04 10:40 | 54.86466 | 8.76704 | 20099 ft | 391 kts | 2° |
| 2026-05-04 10:40 | 54.89150 | 8.76997 | 19645 ft | 381 kts | 353° |
| 2026-05-04 10:40 | 54.91757 | 8.76532 | 19186 ft | 373 kts | 343° |
| 2026-05-04 10:41 | 54.94237 | 8.75391 | 18727 ft | 364 kts | 335° |
| 2026-05-04 10:41 | 54.96585 | 8.73826 | 18332 ft | 360 kts | 333° |
| 2026-05-04 10:41 | 54.98914 | 8.72254 | 17862 ft | 357 kts | 333° |
| 2026-05-04 10:41 | 55.01219 | 8.70699 | 17379 ft | 354 kts | 333° |
| 2026-05-04 10:42 | 55.02738 | 8.69672 | 17063 ft | 352 kts | 334° |
| 2026-05-04 10:42 | 55.05104 | 8.68511 | 16591 ft | 357 kts | 346° |
| 2026-05-04 10:42 | 55.07598 | 8.68315 | 16122 ft | 362 kts | 359° |
| 2026-05-04 10:42 | 55.10080 | 8.69148 | 15668 ft | 367 kts | 13° |
| 2026-05-04 10:43 | 55.12411 | 8.71020 | 15224 ft | 371 kts | 28° |
| 2026-05-04 10:44 | 55.26844 | 8.89198 | 12413 ft | 356 kts | 32° |
| 2026-05-04 10:45 | 55.28849 | 8.91735 | 12029 ft | 354 kts | 32° |
| 2026-05-04 10:45 | 55.30833 | 8.94247 | 11658 ft | 351 kts | 32° |
| 2026-05-04 10:45 | 55.32804 | 8.96749 | 11222 ft | 348 kts | 32° |
| 2026-05-04 10:45 | 55.34752 | 8.99232 | 10782 ft | 344 kts | 33° |
| 2026-05-04 10:46 | 55.36686 | 9.01701 | 10357 ft | 341 kts | 33° |
| 2026-05-04 10:46 | 55.38598 | 9.04138 | 9942 ft | 338 kts | 33° |
| 2026-05-04 10:46 | 55.40469 | 9.06523 | 9794 ft | 325 kts | 33° |
| 2026-05-04 10:46 | 55.42273 | 9.08833 | 9655 ft | 313 kts | 33° |
| 2026-05-04 10:47 | 55.44001 | 9.11057 | 9502 ft | 303 kts | 33° |
| 2026-05-04 10:47 | 55.45684 | 9.13222 | 9216 ft | 297 kts | 33° |
| 2026-05-04 10:47 | 55.47330 | 9.15337 | 8845 ft | 295 kts | 32° |
| 2026-05-04 10:47 | 55.48986 | 9.17465 | 8594 ft | 294 kts | 33° |
| 2026-05-04 10:49 | 55.60147 | 9.31868 | 4699 ft | 274 kts | 32° |
| 2026-05-04 10:49 | 55.61673 | 9.33852 | 4049 ft | 271 kts | 32° |
| 2026-05-04 10:50 | 55.63181 | 9.35810 | 3892 ft | 269 kts | 32° |
| 2026-05-04 10:51 | 55.73111 | 9.46320 | 2962 ft | 201 kts | 335° |
| 2026-05-04 10:52 | 55.74218 | 9.45011 | 2931 ft | 189 kts | 308° |
| 2026-05-04 10:52 | 55.74794 | 9.42952 | 2797 ft | 189 kts | 280° |
| 2026-05-04 10:52 | 55.74796 | 9.40663 | 2691 ft | 181 kts | 268° |
| 2026-05-04 10:54 | 55.74404 | 9.27684 | 2000 ft | 131 kts | 269° |
| 2026-05-04 10:54 | 55.74360 | 9.25995 | 1406 ft | 142 kts | 269° |
| 2026-05-04 10:56 | 55.74049 | 9.15532 | 230 ft | 50 kts | 266° |
| 2026-05-04 10:56 | 55.74034 | 9.15088 | 233 ft | 31 kts | 266° |
| 2026-05-04 10:56 | 55.74024 | 9.14712 | 229 ft | 29 kts | 268° |
| 2026-05-04 10:57 | 55.74070 | 9.14508 | 225 ft | 12 kts | 358° |
| 2026-05-04 10:57 | 55.74127 | 9.14493 | 225 ft | 0 kts | 356° |
| 2026-05-04 10:57 | 55.74137 | 9.14492 | 225 ft | 6 kts | 356° |
| 2026-05-04 10:57 | 55.74181 | 9.14487 | 225 ft | 6 kts | 356° |
| 2026-05-04 10:58 | 55.74217 | 9.14482 | 225 ft | 5 kts | 357° |
| 2026-05-04 10:58 | 55.74253 | 9.14481 | 225 ft | 9 kts | 358° |
| 2026-05-04 10:58 | 55.74369 | 9.14471 | 225 ft | 23 kts | 356° |
| 2026-05-04 10:58 | 55.74535 | 9.14431 | 226 ft | 6 kts | 290° |
| 2026-05-04 10:59 | 55.74538 | 9.14422 | 225 ft | 1 kts | 304° |
| 2026-05-04 10:59 | 55.74544 | 9.14415 | 225 ft | 1 kts | 323° |
| 2026-05-04 10:59 | 55.74525 | 9.14480 | 228 ft | 0 kts | 358° |